Time;durP1;ratioP1;P1;durP2;ratioP2;P2;SDS_P1;SDS_P2;PMS_P1;PMS_P2;Temp;Humidity;BMP_temperature;BMP_pressure;BME280_temperature;BME280_humidity;BME280_pressure;Samples;Min_cycle;Max_cycle;Signal;HPM_P1;HPM_P2
2021/06/09 00:01:22;;;;;;;13.68;11.93;;;16.20;95.10;;;;;;4939338;29;20451;-73
2021/06/09 00:03:48;;;;;;;15.27;12.15;;;16.20;95.20;;;;;;4957135;29;20034;-75
2021/06/09 00:06:14;;;;;;;13.23;11.93;;;16.10;95.20;;;;;;4957015;29;20031;-67
2021/06/09 00:08:39;;;;;;;13.68;12.20;;;16.10;95.30;;;;;;4956725;29;20023;-68
2021/06/09 00:11:05;;;;;;;15.77;12.55;;;16.10;95.40;;;;;;4956682;29;20030;-63
2021/06/09 00:13:32;;;;;;;13.50;12.10;;;16.00;95.40;;;;;;4957191;29;20033;-64
2021/06/09 00:16:01;;;;;;;12.88;11.57;;;16.00;95.50;;;;;;4955867;28;20061;-66
2021/06/09 00:18:27;;;;;;;12.02;10.88;;;16.00;95.60;;;;;;4938832;29;20059;-69
2021/06/09 00:20:52;;;;;;;13.25;11.73;;;16.00;95.60;;;;;;4953936;29;20055;-67
2021/06/09 00:23:20;;;;;;;12.90;11.60;;;15.90;95.60;;;;;;4956881;29;20062;-67
2021/06/09 00:25:50;;;;;;;13.75;11.98;;;15.90;95.60;;;;;;4956604;29;20423;-64
2021/06/09 00:28:16;;;;;;;13.05;11.63;;;15.90;95.70;;;;;;4938826;29;20027;-67
2021/06/09 00:30:42;;;;;;;13.75;12.35;;;15.90;95.70;;;;;;4956752;29;20032;-64
2021/06/09 00:33:08;;;;;;;14.00;11.82;;;15.90;95.70;;;;;;4956195;29;20495;-68
2021/06/09 00:35:33;;;;;;;12.45;11.25;;;15.90;95.80;;;;;;4956059;29;20031;-65
2021/06/09 00:37:59;;;;;;;15.00;13.27;;;15.90;95.80;;;;;;4938942;29;20082;-63
2021/06/09 00:40:26;;;;;;;13.88;12.57;;;15.80;95.80;;;;;;4956467;28;20054;-68
2021/06/09 00:43:16;;;;;;;13.80;12.35;;;15.80;95.90;;;;;;4955596;29;20050;-65
2021/06/09 00:45:44;;;;;;;13.82;12.40;;;15.80;96.00;;;;;;4956402;29;20054;-65
2021/06/09 00:48:10;;;;;;;13.98;12.68;;;15.80;96.00;;;;;;4955997;29;20395;-66
2021/06/09 00:50:37;;;;;;;14.20;12.80;;;15.80;96.00;;;;;;4956370;28;20491;-70
2021/06/09 00:55:48;;;;;;;13.48;12.18;;;15.70;96.00;;;;;;4955221;29;20047;-67
2021/06/09 00:58:14;;;;;;;14.45;13.02;;;15.70;96.10;;;;;;4956186;29;20031;-64
2021/06/09 01:00:41;;;;;;;14.52;13.02;;;15.70;96.10;;;;;;4939282;29;20019;-68
2021/06/09 01:03:06;;;;;;;16.23;13.43;;;15.70;96.20;;;;;;4955148;28;20038;-66
2021/06/09 01:05:33;;;;;;;16.48;13.40;;;15.60;96.20;;;;;;4956187;29;20019;-65
2021/06/09 01:08:03;;;;;;;15.38;13.52;;;15.60;96.20;;;;;;4955733;28;20474;-68
2021/06/09 01:10:29;;;;;;;15.20;13.63;;;15.60;96.30;;;;;;4955479;29;20364;-67
2021/06/09 01:12:57;;;;;;;15.05;13.60;;;15.60;96.30;;;;;;4938278;29;20395;-67
2021/06/09 01:15:24;;;;;;;14.60;13.13;;;15.60;96.30;;;;;;4938741;29;20078;-68
2021/06/09 01:17:49;;;;;;;14.18;12.77;;;15.60;96.30;;;;;;4954908;29;20054;-68
2021/06/09 01:20:15;;;;;;;15.10;13.40;;;15.50;96.30;;;;;;4955855;29;20062;-64
2021/06/09 06:13:30;;;;;;;25.95;23.30;;;19.70;93.90;;;;;;5669351;23;20450;-62
2021/06/09 06:15:57;;;;;;;26.67;24.08;;;19.80;93.50;;;;;;4932096;29;20056;-62
2021/06/09 06:18:49;;;;;;;26.10;23.60;;;19.90;93.30;;;;;;4940838;29;20034;-67
2021/06/09 06:21:18;;;;;;;25.60;23.15;;;20.10;93.50;;;;;;4945766;29;20047;-73
2021/06/09 06:23:46;;;;;;;26.65;24.05;;;20.20;92.80;;;;;;4952599;29;20062;-63
2021/06/09 06:26:15;;;;;;;26.02;23.58;;;20.40;92.50;;;;;;4935587;29;20448;-63
2021/06/09 06:28:41;;;;;;;25.80;23.40;;;20.50;92.40;;;;;;4919616;29;20479;-63
2021/06/09 06:31:14;;;;;;;28.48;25.63;;;20.60;92.30;;;;;;4952592;29;20061;-67
2021/06/09 06:33:42;;;;;;;29.50;26.13;;;20.70;92.00;;;;;;4953534;29;20567;-67
2021/06/09 06:36:09;;;;;;;27.83;24.92;;;20.80;91.60;;;;;;4952288;29;20141;-63
2021/06/09 06:38:37;;;;;;;27.58;24.73;;;20.80;91.30;;;;;;4953055;29;20015;-63
2021/06/09 06:41:04;;;;;;;26.95;24.23;;;20.90;91.10;;;;;;4953110;29;20031;-64
2021/06/09 06:43:30;;;;;;;27.23;24.40;;;20.90;90.80;;;;;;4952753;29;20069;-62
2021/06/09 06:45:56;;;;;;;25.63;23.10;;;21.00;90.70;;;;;;4953076;29;20047;-64
2021/06/09 06:48:22;;;;;;;27.08;22.95;;;21.00;90.50;;;;;;4952962;29;20031;-64
2021/06/09 06:50:48;;;;;;;24.85;22.40;;;21.00;90.50;;;;;;4953153;29;20023;-65
2021/06/09 06:53:14;;;;;;;25.00;22.60;;;21.10;90.30;;;;;;4953684;29;20523;-69
2021/06/09 06:55:40;;;;;;;23.67;21.38;;;21.20;90.20;;;;;;4952305;29;20043;-66
2021/06/09 06:58:07;;;;;;;24.33;21.75;;;21.30;90.20;;;;;;4952833;28;20110;-64
2021/06/09 07:00:33;;;;;;;24.33;21.92;;;21.40;89.80;;;;;;4936558;29;20028;-75
2021/06/09 07:03:01;;;;;;;22.88;20.65;;;21.50;89.60;;;;;;4952654;29;20026;-64
2021/06/09 07:05:29;;;;;;;25.65;21.10;;;21.70;89.70;;;;;;4950898;29;20023;-71
2021/06/09 07:07:59;;;;;;;25.27;21.50;;;21.80;89.30;;;;;;4952865;29;20039;-66
2021/06/09 07:10:26;;;;;;;23.50;21.20;;;22.00;88.70;;;;;;4952814;29;20063;-73
2021/06/09 07:12:55;;;;;;;23.83;21.52;;;22.10;88.20;;;;;;4952887;29;20435;-73
2021/06/09 07:15:21;;;;;;;24.60;22.08;;;22.20;87.40;;;;;;4951867;29;20043;-77
2021/06/09 07:17:49;;;;;;;24.17;21.63;;;22.40;86.50;;;;;;4951872;29;20119;-73
2021/06/09 07:20:19;;;;;;;23.83;21.50;;;22.50;85.60;;;;;;4952615;28;20030;-80
2021/06/09 07:22:46;;;;;;;22.95;20.65;;;22.50;85.00;;;;;;4952115;28;20078;-71
2021/06/09 07:25:12;;;;;;;20.90;18.80;;;22.60;84.40;;;;;;4941403;28;22163;-66
2021/06/09 07:27:41;;;;;;;22.02;19.73;;;22.70;84.20;;;;;;4949253;28;20027;-66
2021/06/09 07:30:08;;;;;;;21.55;19.50;;;22.80;84.60;;;;;;4936013;29;20023;-68
2021/06/09 07:32:42;;;;;;;22.48;20.23;;;22.90;84.60;;;;;;4941806;28;20035;-66
2021/06/09 07:35:08;;;;;;;20.15;18.27;;;23.00;83.00;;;;;;4949941;29;20099;-73
2021/06/09 07:37:46;;;;;;;21.38;18.70;;;23.00;82.80;;;;;;4956743;29;20468;-63
2021/06/09 07:40:18;;;;;;;20.05;18.25;;;23.10;81.80;;;;;;4955587;29;20111;-66
2021/06/09 07:42:52;;;;;;;19.73;17.65;;;23.10;81.30;;;;;;4956623;29;20074;-65
2021/06/09 07:45:19;;;;;;;19.83;17.73;;;23.20;81.60;;;;;;4956196;29;20019;-64
2021/06/09 07:47:47;;;;;;;19.33;16.85;;;23.20;81.60;;;;;;4938787;29;20141;-65
2021/06/09 07:50:14;;;;;;;19.00;16.92;;;23.20;81.10;;;;;;4956953;29;20016;-64
2021/06/09 07:52:44;;;;;;;21.45;17.98;;;23.20;81.30;;;;;;4956273;29;20067;-64
2021/06/09 07:55:11;;;;;;;19.17;17.40;;;23.20;80.90;;;;;;4956485;29;20032;-66
2021/06/09 07:57:40;;;;;;;18.92;16.98;;;23.20;80.60;;;;;;4956090;29;20386;-82
2021/06/09 08:00:11;;;;;;;21.08;17.25;;;23.10;81.00;;;;;;4954715;29;20035;-74
2021/06/09 08:02:39;;;;;;;18.80;17.05;;;23.20;80.20;;;;;;4956223;29;20023;-72
2021/06/09 08:05:06;;;;;;;18.60;16.70;;;23.20;80.80;;;;;;4955001;29;20437;-74
2021/06/09 08:07:31;;;;;;;18.85;15.90;;;23.30;80.70;;;;;;4954937;28;20047;-75
2021/06/09 08:09:57;;;;;;;18.05;16.15;;;23.30;79.10;;;;;;4956218;29;20035;-68
2021/06/09 08:12:23;;;;;;;15.75;14.23;;;23.30;78.70;;;;;;4955837;29;20388;-66
2021/06/09 08:14:49;;;;;;;17.42;15.63;;;23.30;78.30;;;;;;4954853;29;20046;-66
2021/06/09 08:17:15;;;;;;;17.13;15.40;;;23.30;78.30;;;;;;4956938;29;20031;-70
2021/06/09 08:19:41;;;;;;;17.58;15.77;;;23.40;78.60;;;;;;4954870;29;20033;-81
2021/06/09 08:22:07;;;;;;;18.48;16.50;;;23.40;79.00;;;;;;4955240;29;20031;-66
2021/06/09 08:24:33;;;;;;;20.60;18.40;;;23.50;79.70;;;;;;4955388;29;20444;-70
2021/06/09 08:27:03;;;;;;;17.02;15.48;;;23.50;78.90;;;;;;4954725;29;20035;-77
2021/06/09 08:29:31;;;;;;;21.30;19.27;;;23.60;79.60;;;;;;4955630;29;20110;-70
2021/06/09 08:31:57;;;;;;;17.38;15.68;;;23.70;78.30;;;;;;4955190;29;20398;-76
2021/06/09 08:34:22;;;;;;;17.92;16.27;;;23.70;78.10;;;;;;4956184;29;20031;-72
2021/06/09 08:36:49;;;;;;;19.45;17.40;;;23.80;78.00;;;;;;4956426;29;20023;-76
2021/06/09 08:39:14;;;;;;;21.65;19.70;;;23.80;77.20;;;;;;4954790;28;20031;-71
2021/06/09 08:41:40;;;;;;;18.85;17.08;;;23.90;76.30;;;;;;4954084;29;20027;-65
2021/06/09 08:44:07;;;;;;;18.92;17.20;;;23.90;77.10;;;;;;4954812;29;20031;-68
2021/06/09 08:46:35;;;;;;;18.20;16.35;;;23.90;77.10;;;;;;4955892;29;20031;-74
2021/06/09 08:49:03;;;;;;;14.98;13.48;;;24.00;76.50;;;;;;4937934;29;20495;-68
2021/06/09 08:51:31;;;;;;;13.15;11.95;;;24.00;74.40;;;;;;4955294;29;20030;-75
2021/06/09 08:53:57;;;;;;;14.98;13.57;;;24.10;73.90;;;;;;4955494;29;20491;-78
2021/06/09 08:56:24;;;;;;;15.45;13.85;;;24.10;73.00;;;;;;4954988;29;20051;-70
2021/06/09 08:58:51;;;;;;;16.25;14.65;;;24.10;72.20;;;;;;4955341;29;20491;-76
2021/06/09 09:01:17;;;;;;;16.38;14.45;;;24.20;73.00;;;;;;4953346;28;20534;-70
2021/06/09 09:03:47;;;;;;;15.02;13.13;;;24.30;72.60;;;;;;4934482;29;20027;-65
2021/06/09 09:06:13;;;;;;;15.73;14.02;;;24.30;73.00;;;;;;4955285;29;20011;-73
2021/06/09 09:08:39;;;;;;;14.27;12.75;;;24.40;72.00;;;;;;4938018;29;20499;-69
2021/06/09 09:11:05;;;;;;;12.68;11.38;;;24.50;72.50;;;;;;4954718;29;20031;-78
2021/06/09 09:13:35;;;;;;;13.65;12.35;;;24.60;72.60;;;;;;4954395;29;20028;-93
2021/06/09 09:16:03;;;;;;;19.05;11.82;;;24.70;70.60;;;;;;4956387;29;20499;-90
2021/06/09 09:19:02;;;;;;;17.63;16.00;;;24.80;70.50;;;;;;4954320;29;20067;-82
2021/06/09 09:21:43;;;;;;;17.80;16.17;;;24.90;70.10;;;;;;4955045;29;20357;-79
2021/06/09 09:24:11;;;;;;;14.27;12.68;;;24.90;70.60;;;;;;4935733;29;20028;-77
2021/06/09 09:26:39;;;;;;;16.80;14.98;;;24.90;71.60;;;;;;4948112;29;20023;-78
2021/06/09 09:29:22;;;;;;;16.30;14.70;;;24.90;70.60;;;;;;4955324;29;20043;-77
2021/06/09 09:31:49;;;;;;;16.55;14.95;;;24.80;70.30;;;;;;4954507;29;20534;-69
2021/06/09 09:34:32;;;;;;;17.73;16.05;;;24.90;70.40;;;;;;4955194;29;20027;-66
2021/06/09 09:37:21;;;;;;;18.30;16.70;;;24.90;70.20;;;;;;4954883;29;20375;-66
2021/06/09 09:39:50;;;;;;;16.42;14.85;;;24.80;69.20;;;;;;4954284;29;20086;-68
2021/06/09 09:42:22;;;;;;;15.13;13.63;;;24.80;68.90;;;;;;4955179;29;20031;-64
2021/06/09 09:44:49;;;;;;;15.95;14.30;;;24.80;69.40;;;;;;4954222;29;20035;-64
2021/06/09 09:47:20;;;;;;;15.82;14.13;;;24.90;68.80;;;;;;4937811;29;20375;-64
2021/06/09 09:49:48;;;;;;;15.50;13.90;;;24.90;69.00;;;;;;4954665;28;20027;-64
2021/06/09 09:52:14;;;;;;;15.90;14.50;;;25.10;68.30;;;;;;4954459;29;20372;-65
2021/06/09 09:54:43;;;;;;;15.90;14.30;;;25.10;67.00;;;;;;4954821;29;20028;-71
2021/06/09 09:57:11;;;;;;;15.00;13.50;;;25.20;67.50;;;;;;4954993;29;20146;-77
2021/06/09 09:59:38;;;;;;;14.40;12.88;;;25.30;66.60;;;;;;4954311;29;20554;-65
2021/06/09 10:02:13;;;;;;;14.32;13.02;;;25.30;66.30;;;;;;4954549;29;20038;-73
2021/06/09 10:04:39;;;;;;;14.48;12.98;;;25.40;65.80;;;;;;4954810;29;20035;-71
2021/06/09 10:07:08;;;;;;;13.07;11.50;;;25.50;65.40;;;;;;4953898;29;20542;-69
2021/06/09 10:09:43;;;;;;;13.20;10.93;;;25.50;64.00;;;;;;4954784;29;20034;-72
2021/06/09 10:12:11;;;;;;;10.45;9.43;;;25.60;63.50;;;;;;4954725;29;20090;-71
2021/06/09 10:14:46;;;;;;;9.90;8.07;;;25.60;62.60;;;;;;4953790;29;20131;-78
2021/06/09 10:17:14;;;;;;;9.27;8.38;;;25.70;62.80;;;;;;4954928;29;20123;-66
2021/06/09 10:19:53;;;;;;;12.20;11.07;;;25.80;62.70;;;;;;4954491;29;20494;-69
2021/06/09 10:22:28;;;;;;;12.85;10.85;;;25.90;61.90;;;;;;4954558;29;20027;-69
2021/06/09 10:24:53;;;;;;;11.95;10.48;;;26.00;61.80;;;;;;4954158;29;20023;-69
2021/06/09 10:27:47;;;;;;;11.48;10.38;;;26.00;61.40;;;;;;4953970;29;20054;-65
2021/06/09 10:30:21;;;;;;;11.23;9.70;;;26.00;61.20;;;;;;4937505;29;20023;-63
2021/06/09 10:32:57;;;;;;;10.13;7.75;;;26.10;59.30;;;;;;4954102;29;20039;-64
2021/06/09 10:35:28;;;;;;;11.82;8.75;;;26.10;58.90;;;;;;4953608;29;20402;-64
2021/06/09 10:37:54;;;;;;;10.23;8.38;;;25.90;58.50;;;;;;4954198;29;20043;-64
2021/06/09 10:40:22;;;;;;;9.05;8.13;;;25.90;59.30;;;;;;4954316;29;20446;-63
2021/06/09 10:42:49;;;;;;;10.13;9.07;;;25.80;59.50;;;;;;4953462;29;20435;-73
2021/06/09 10:45:16;;;;;;;9.23;8.27;;;25.90;59.60;;;;;;4954249;29;20046;-66
2021/06/09 10:47:44;;;;;;;7.10;6.10;;;26.00;58.70;;;;;;4954279;29;20193;-65
2021/06/09 10:50:10;;;;;;;7.68;6.38;;;26.00;57.70;;;;;;4936758;29;20082;-63
2021/06/09 10:52:37;;;;;;;9.10;7.18;;;26.00;57.30;;;;;;4953964;29;20031;-65
2021/06/09 10:55:05;;;;;;;11.20;10.10;;;26.00;57.60;;;;;;4953018;29;20835;-68
2021/06/09 10:57:31;;;;;;;12.75;11.60;;;26.10;57.80;;;;;;4954004;29;20019;-65
2021/06/09 10:59:57;;;;;;;11.27;9.18;;;26.10;58.00;;;;;;4953621;29;20472;-66
2021/06/09 11:02:24;;;;;;;12.05;10.85;;;26.20;58.00;;;;;;4955072;28;20446;-67
2021/06/09 11:04:53;;;;;;;10.75;9.70;;;26.20;57.70;;;;;;4957690;29;20079;-70
2021/06/09 11:07:31;;;;;;;11.30;9.75;;;26.20;57.80;;;;;;4958031;29;20031;-76
2021/06/09 11:09:58;;;;;;;10.75;9.73;;;26.30;58.80;;;;;;4956786;29;20408;-67
2021/06/09 11:12:28;;;;;;;11.95;10.70;;;26.40;58.40;;;;;;4957856;29;20535;-68
2021/06/09 11:14:53;;;;;;;13.30;11.50;;;26.50;59.30;;;;;;4940071;29;20071;-66
2021/06/09 11:17:40;;;;;;;15.77;11.98;;;26.50;58.70;;;;;;4957224;29;20058;-65
2021/06/09 11:20:39;;;;;;;12.57;11.38;;;26.60;58.50;;;;;;4957521;29;20063;-67
2021/06/09 11:23:05;;;;;;;10.32;9.25;;;26.60;58.90;;;;;;4940545;29;20122;-65
2021/06/09 11:25:43;;;;;;;11.73;10.63;;;26.70;59.20;;;;;;4956772;29;20162;-68
2021/06/09 11:28:16;;;;;;;12.35;11.13;;;26.80;58.10;;;;;;4957512;29;20388;-68
2021/06/09 11:30:50;;;;;;;12.27;11.10;;;26.80;57.70;;;;;;4956657;29;20062;-63
2021/06/09 11:33:41;;;;;;;12.10;9.43;;;26.80;57.10;;;;;;4940130;29;20043;-64
2021/06/09 11:36:28;;;;;;;12.48;8.75;;;26.80;57.20;;;;;;4957006;29;20058;-66
2021/06/09 11:39:05;;;;;;;9.77;7.50;;;26.90;55.60;;;;;;4956594;29;20531;-64
2021/06/09 11:41:43;;;;;;;9.35;8.45;;;26.90;56.30;;;;;;4957477;29;20054;-67
2021/06/09 11:44:34;;;;;;;11.15;9.20;;;27.00;56.10;;;;;;4924024;29;20015;-65
2021/06/09 11:47:21;;;;;;;10.00;9.00;;;27.10;55.50;;;;;;4957095;29;20034;-66
2021/06/09 11:49:47;;;;;;;10.85;9.75;;;27.20;54.90;;;;;;4956924;29;20027;-67
2021/06/09 11:52:14;;;;;;;10.38;8.38;;;27.20;54.60;;;;;;4956423;29;20042;-67
2021/06/09 11:54:39;;;;;;;8.82;8.02;;;27.30;55.10;;;;;;4957110;29;20019;-70
2021/06/09 11:57:18;;;;;;;12.52;8.73;;;27.30;55.40;;;;;;4956968;29;20502;-71
2021/06/09 11:59:44;;;;;;;8.95;8.15;;;27.30;55.00;;;;;;4956315;29;20384;-66
2021/06/09 12:02:26;;;;;;;9.32;8.43;;;27.30;54.40;;;;;;4939851;29;20023;-69
2021/06/09 12:04:55;;;;;;;10.15;9.13;;;27.20;54.40;;;;;;4956669;29;20059;-69
2021/06/09 12:07:31;;;;;;;10.57;8.43;;;27.20;54.50;;;;;;4956407;29;20019;-74
2021/06/09 12:10:01;;;;;;;9.68;8.52;;;27.20;54.80;;;;;;4956569;29;20030;-68
2021/06/09 12:12:28;;;;;;;10.23;9.23;;;27.20;54.30;;;;;;4955990;29;20062;-66
2021/06/09 12:15:00;;;;;;;10.30;8.73;;;27.20;54.10;;;;;;4954676;29;20043;-67
2021/06/09 12:17:37;;;;;;;10.20;7.13;;;27.20;54.50;;;;;;4956676;29;20038;-64
2021/06/09 12:20:21;;;;;;;8.27;7.45;;;27.30;55.40;;;;;;4938476;29;20023;-64
2021/06/09 12:22:55;;;;;;;9.50;7.07;;;27.50;54.30;;;;;;4956272;29;20031;-64
2021/06/09 12:25:29;;;;;;;8.90;6.07;;;27.50;52.90;;;;;;4939360;29;20023;-64
2021/06/09 12:28:18;;;;;;;7.13;6.15;;;27.50;53.80;;;;;;4938517;29;20040;-66
2021/06/09 12:30:53;;;;;;;8.10;7.32;;;27.60;53.90;;;;;;4956160;29;20020;-63
2021/06/09 12:33:19;;;;;;;8.13;6.15;;;27.60;52.70;;;;;;4956249;29;20045;-64
2021/06/09 12:35:46;;;;;;;9.00;7.15;;;27.60;53.60;;;;;;4955302;29;20031;-64
2021/06/09 12:38:12;;;;;;;10.32;6.88;;;27.60;52.10;;;;;;4956395;29;20087;-70
2021/06/09 12:40:45;;;;;;;7.80;6.97;;;27.60;51.40;;;;;;4955745;29;20035;-65
2021/06/09 12:43:13;;;;;;;6.88;6.00;;;27.60;51.10;;;;;;4956248;29;20046;-64
2021/06/09 12:45:44;;;;;;;6.80;6.03;;;27.50;51.60;;;;;;4956431;29;20020;-64
2021/06/09 12:48:12;;;;;;;5.90;5.30;;;27.60;52.10;;;;;;4955573;29;20054;-65
2021/06/09 12:50:40;;;;;;;8.10;6.43;;;27.80;52.30;;;;;;4956087;29;20019;-66
2021/06/09 12:53:13;;;;;;;7.07;5.85;;;28.00;51.70;;;;;;4955751;29;20031;-69
2021/06/09 12:55:48;;;;;;;6.55;5.82;;;28.10;51.40;;;;;;4955067;29;20103;-65
2021/06/09 12:58:21;;;;;;;5.68;5.18;;;28.20;50.80;;;;;;4938723;29;20088;-67
2021/06/09 13:00:46;;;;;;;6.22;5.18;;;28.30;51.30;;;;;;4955606;29;20044;-65
2021/06/09 13:03:20;;;;;;;6.30;5.70;;;28.40;51.30;;;;;;4955248;29;20062;-70
2021/06/09 13:06:04;;;;;;;9.75;5.25;;;28.50;50.90;;;;;;4955428;29;20054;-66
2021/06/09 13:08:37;;;;;;;7.05;6.38;;;28.60;50.50;;;;;;4955774;29;20019;-72
2021/06/09 13:11:07;;;;;;;9.77;6.28;;;28.70;49.60;;;;;;4954836;29;20031;-66
2021/06/09 13:13:34;;;;;;;6.95;4.45;;;28.60;48.50;;;;;;4955766;29;20031;-69
2021/06/09 13:16:02;;;;;;;5.70;5.20;;;28.60;50.40;;;;;;4954625;29;20355;-68
2021/06/09 13:18:45;;;;;;;6.60;5.90;;;28.60;49.50;;;;;;4955510;29;20089;-65
2021/06/09 13:21:17;;;;;;;6.18;5.57;;;28.70;47.90;;;;;;4955508;29;20476;-66
2021/06/09 13:23:43;;;;;;;8.32;6.13;;;28.70;48.60;;;;;;4954771;29;20571;-74
2021/06/09 13:26:11;;;;;;;8.40;5.85;;;28.70;49.60;;;;;;4954989;28;20042;-66
2021/06/09 13:28:36;;;;;;;7.55;6.57;;;28.80;49.50;;;;;;4955501;29;20098;-71
2021/06/09 13:31:03;;;;;;;7.30;6.60;;;28.80;48.80;;;;;;4954257;29;20419;-73
2021/06/09 13:33:28;;;;;;;8.32;6.70;;;28.70;50.00;;;;;;4955732;29;20067;-73
2021/06/09 13:35:55;;;;;;;10.30;7.43;;;28.60;49.10;;;;;;4954827;29;20047;-74
2021/06/09 13:38:20;;;;;;;8.65;7.32;;;28.60;50.00;;;;;;4954668;29;20391;-69
2021/06/09 13:40:46;;;;;;;6.60;5.85;;;28.60;48.70;;;;;;4937020;29;20527;-66
2021/06/09 13:43:14;;;;;;;7.85;6.90;;;28.60;48.90;;;;;;4954956;29;20031;-64
2021/06/09 13:45:49;;;;;;;7.15;6.32;;;28.60;48.90;;;;;;4953812;29;20051;-66
2021/06/09 13:48:20;;;;;;;7.13;6.38;;;28.60;49.80;;;;;;4954923;29;20066;-66
2021/06/09 13:51:06;;;;;;;12.30;9.95;;;28.70;50.30;;;;;;4954148;29;20023;-69
2021/06/09 13:53:55;;;;;;;10.43;9.43;;;28.70;49.90;;;;;;4954467;29;20042;-65
2021/06/09 13:56:34;;;;;;;10.10;8.10;;;28.60;50.70;;;;;;4937208;29;20041;-66
2021/06/09 13:59:11;;;;;;;12.95;10.60;;;28.70;51.30;;;;;;4934544;29;20054;-67
2021/06/09 14:01:38;;;;;;;16.65;14.05;;;28.70;51.00;;;;;;4954237;29;20035;-67
2021/06/09 14:04:04;;;;;;;13.85;12.13;;;28.70;51.10;;;;;;4953757;29;20038;-69
2021/06/09 14:06:30;;;;;;;14.45;13.00;;;28.60;51.30;;;;;;4952943;29;20467;-69
2021/06/09 14:09:13;;;;;;;13.27;12.00;;;28.60;51.00;;;;;;4954341;29;20099;-64
2021/06/09 14:11:59;;;;;;;13.13;11.82;;;28.60;50.80;;;;;;4948603;29;20384;-64
2021/06/09 14:14:27;;;;;;;17.17;14.40;;;28.60;50.80;;;;;;4954372;29;20072;-64
2021/06/09 14:17:09;;;;;;;14.60;13.18;;;28.70;51.20;;;;;;4931236;29;20091;-64
2021/06/09 14:19:36;;;;;;;17.10;15.50;;;28.70;52.10;;;;;;4948954;29;20118;-66
2021/06/09 14:22:03;;;;;;;16.40;14.77;;;28.70;52.10;;;;;;4936759;29;20026;-69
2021/06/09 14:24:29;;;;;;;15.93;12.95;;;28.70;51.50;;;;;;4953861;29;20030;-67
2021/06/09 14:26:56;;;;;;;14.13;12.63;;;28.80;50.60;;;;;;4952622;29;20023;-68
2021/06/09 14:29:22;;;;;;;13.85;12.10;;;28.90;50.90;;;;;;4953906;29;20027;-71
2021/06/09 14:31:48;;;;;;;14.82;12.63;;;28.90;51.50;;;;;;4953710;29;20381;-74
2021/06/09 14:34:20;;;;;;;13.95;12.60;;;29.00;50.70;;;;;;4953390;29;20050;-70
2021/06/09 14:37:05;;;;;;;12.65;11.45;;;29.10;50.20;;;;;;4953459;28;20045;-67
2021/06/09 14:39:31;;;;;;;11.90;10.30;;;29.10;51.40;;;;;;4936442;29;20495;-68
2021/06/09 14:41:58;;;;;;;11.60;9.05;;;29.10;50.90;;;;;;4953191;29;20031;-68
2021/06/09 14:44:43;;;;;;;10.48;9.48;;;29.10;51.00;;;;;;4953730;29;20099;-72
2021/06/09 14:49:48;;;;;;;12.32;11.13;;;29.20;51.40;;;;;;4953083;29;20024;-67
2021/06/09 14:52:26;;;;;;;11.10;9.32;;;29.20;50.10;;;;;;4954211;28;20531;-70
2021/06/09 14:55:02;;;;;;;9.35;7.32;;;29.10;50.40;;;;;;4952570;29;20028;-66
2021/06/09 14:57:29;;;;;;;11.35;10.18;;;29.10;52.20;;;;;;4953531;28;20495;-66
2021/06/09 15:00:00;;;;;;;10.23;8.98;;;29.00;49.40;;;;;;4953188;29;20030;-65
2021/06/09 15:02:28;;;;;;;9.25;8.32;;;29.00;51.00;;;;;;4952402;28;20046;-66
2021/06/09 15:04:54;;;;;;;9.55;8.48;;;29.00;50.30;;;;;;4952827;29;20042;-66
2021/06/09 15:07:21;;;;;;;8.55;7.65;;;28.90;49.80;;;;;;4953924;29;20038;-65
2021/06/09 15:09:49;;;;;;;12.32;6.55;;;28.70;49.90;;;;;;4952227;29;20028;-67
2021/06/09 15:12:15;;;;;;;8.00;7.10;;;28.50;50.50;;;;;;4961977;28;20479;-67
2021/06/09 15:14:40;;;;;;;8.05;7.35;;;28.30;50.60;;;;;;4958499;28;20038;-66
2021/06/09 15:17:06;;;;;;;8.88;7.85;;;28.40;50.20;;;;;;4971907;28;20031;-75
2021/06/09 15:19:32;;;;;;;8.27;7.30;;;28.40;50.20;;;;;;4967870;28;20098;-71
2021/06/09 15:21:58;;;;;;;8.75;7.15;;;28.50;50.90;;;;;;4953314;29;20034;-69
2021/06/09 15:24:24;;;;;;;9.80;7.10;;;28.60;50.70;;;;;;4945591;29;20023;-66
2021/06/09 15:26:49;;;;;;;8.73;7.82;;;28.50;50.50;;;;;;4941084;29;20368;-67
2021/06/09 15:29:15;;;;;;;10.98;8.30;;;28.40;50.60;;;;;;4952363;29;20034;-66
2021/06/09 15:31:42;;;;;;;11.65;7.25;;;28.30;51.30;;;;;;4952120;29;20027;-72
2021/06/09 15:34:09;;;;;;;10.13;6.78;;;28.20;51.20;;;;;;4953301;29;20106;-69
2021/06/09 15:36:37;;;;;;;7.65;6.32;;;28.20;50.90;;;;;;4952907;29;20495;-64
2021/06/09 15:39:05;;;;;;;8.07;6.72;;;28.10;50.90;;;;;;4951489;29;20034;-69
2021/06/09 15:41:31;;;;;;;7.53;6.78;;;28.20;50.40;;;;;;4934332;29;20066;-64
2021/06/09 15:43:56;;;;;;;7.15;6.45;;;28.30;50.60;;;;;;4951456;29;20427;-64
2021/06/09 15:46:22;;;;;;;12.30;9.57;;;28.30;50.60;;;;;;4952636;29;20081;-66
2021/06/09 15:48:48;;;;;;;8.98;7.57;;;28.40;50.70;;;;;;4954441;28;20468;-69
2021/06/09 15:51:13;;;;;;;9.38;7.07;;;28.40;51.10;;;;;;4956216;29;20031;-65
2021/06/09 15:53:39;;;;;;;10.77;7.18;;;28.50;51.00;;;;;;4956988;29;20038;-65
2021/06/09 15:56:05;;;;;;;12.93;7.93;;;28.50;51.50;;;;;;4953447;29;20027;-68
2021/06/09 15:58:31;;;;;;;9.13;6.85;;;28.60;50.90;;;;;;4945716;29;20498;-65
2021/06/09 16:00:56;;;;;;;8.10;6.82;;;28.50;52.60;;;;;;4950381;29;20023;-66
2021/06/09 16:03:22;;;;;;;7.32;5.90;;;28.60;52.30;;;;;;4951308;29;20035;-66
2021/06/09 16:05:48;;;;;;;7.78;5.50;;;28.70;52.10;;;;;;4952198;29;20027;-67
2021/06/09 16:08:13;;;;;;;7.47;6.20;;;28.80;52.60;;;;;;4953087;29;20039;-68
2021/06/09 16:10:40;;;;;;;8.48;7.07;;;28.90;51.00;;;;;;4952688;29;20071;-70
2021/06/09 16:13:05;;;;;;;8.77;6.72;;;29.00;51.00;;;;;;4950968;29;20043;-69
2021/06/09 16:15:31;;;;;;;7.50;5.95;;;29.30;49.70;;;;;;4952050;29;20039;-66
2021/06/09 16:17:57;;;;;;;7.10;5.95;;;29.60;49.30;;;;;;4950961;29;20042;-68
2021/06/09 16:20:25;;;;;;;10.27;5.53;;;30.10;48.50;;;;;;4951995;29;20074;-67
2021/06/09 16:22:50;;;;;;;9.88;6.30;;;30.60;48.10;;;;;;4952287;29;20392;-73
2021/06/09 16:25:16;;;;;;;7.43;6.03;;;31.20;47.30;;;;;;4952222;29;20031;-66
2021/06/09 16:27:43;;;;;;;18.45;15.27;;;31.70;45.70;;;;;;4952581;29;20678;-67
2021/06/09 16:30:09;;;;;;;12.93;7.50;;;32.00;45.70;;;;;;4951422;29;20156;-64
2021/06/09 16:32:36;;;;;;;12.07;10.10;;;32.20;44.50;;;;;;4951644;29;20093;-71
2021/06/09 16:35:03;;;;;;;6.40;5.80;;;32.40;44.40;;;;;;4952495;29;20029;-67
2021/06/09 16:37:29;;;;;;;8.38;5.97;;;32.60;43.80;;;;;;4952583;29;20050;-65
2021/06/09 16:39:54;;;;;;;6.18;4.95;;;32.60;43.20;;;;;;4940978;29;20485;-71
2021/06/09 16:42:20;;;;;;;7.82;4.97;;;32.70;44.50;;;;;;4916232;29;20040;-69
2021/06/09 16:44:46;;;;;;;6.57;5.22;;;32.90;43.10;;;;;;4932983;29;20035;-74
2021/06/09 16:47:11;;;;;;;7.07;4.88;;;33.10;42.10;;;;;;4933130;29;20042;-80
2021/06/09 16:49:37;;;;;;;6.72;4.72;;;33.10;42.30;;;;;;4933258;29;20028;-69
2021/06/09 16:52:03;;;;;;;7.88;4.90;;;33.00;42.80;;;;;;4941718;29;20248;-69
2021/06/09 16:54:34;;;;;;;6.72;4.47;;;33.00;42.60;;;;;;4952408;29;20499;-77
2021/06/09 16:59:25;;;;;;;8.98;5.85;;;32.80;42.80;;;;;;4949132;28;20044;-69
2021/06/09 17:01:51;;;;;;;7.47;4.43;;;32.80;42.70;;;;;;4951744;29;20024;-68
2021/06/09 17:04:17;;;;;;;6.60;4.47;;;32.70;42.30;;;;;;4952072;29;20113;-75
2021/06/09 17:06:43;;;;;;;7.55;4.20;;;32.70;42.80;;;;;;4951691;29;20023;-72
2021/06/09 17:09:10;;;;;;;7.30;4.45;;;32.70;41.90;;;;;;4935931;29;20126;-66
2021/06/09 17:11:35;;;;;;;4.85;4.35;;;32.70;42.60;;;;;;4951998;29;20114;-66
2021/06/09 17:14:01;;;;;;;33.97;28.20;;;32.60;42.40;;;;;;4952002;29;20146;-65
2021/06/09 17:16:27;;;;;;;61.05;42.78;;;32.50;42.20;;;;;;4953059;29;20030;-65
2021/06/09 17:18:55;;;;;;;20.88;16.75;;;32.50;43.10;;;;;;4954914;29;20082;-66
2021/06/09 17:21:21;;;;;;;14.88;8.60;;;32.60;42.40;;;;;;4955288;29;20468;-64
2021/06/09 17:23:47;;;;;;;11.75;10.55;;;32.50;42.00;;;;;;4954141;29;20035;-64
2021/06/09 17:26:13;;;;;;;8.15;7.18;;;32.50;41.80;;;;;;4954117;28;20046;-64
2021/06/09 17:28:39;;;;;;;9.88;5.45;;;32.40;41.30;;;;;;4952634;29;20055;-64
2021/06/09 17:31:05;;;;;;;5.00;3.92;;;32.40;41.60;;;;;;4954272;29;20038;-64
2021/06/09 17:33:31;;;;;;;3.53;3.10;;;32.20;41.00;;;;;;4955096;29;20032;-69
2021/06/09 17:35:57;;;;;;;3.92;2.88;;;32.00;41.30;;;;;;4954458;29;20027;-66
2021/06/09 17:38:23;;;;;;;5.78;3.42;;;31.70;42.00;;;;;;4955269;29;20086;-66
2021/06/09 17:40:50;;;;;;;4.20;3.50;;;31.60;41.90;;;;;;4954980;29;20391;-65
2021/06/09 17:43:16;;;;;;;4.93;4.00;;;31.50;40.90;;;;;;4954933;29;20035;-66
2021/06/09 17:45:41;;;;;;;4.72;3.30;;;31.10;40.80;;;;;;4955467;29;20514;-66